Flight Track Log - Related Links

Times and Time Zones

All times are in EDT time to prevent confusion due to time zone crossing. See the N81AU flight status page for this flight to view local times or setup timezone preferences in your user account.

Time Position Orientation Groundspeed Altitude Reporting Facility
EDT Latitude Longitude Course Direction KTS MPH feet Rate Location/Type
Thu 01:04:00 PM 29.9854 -85.0503 353° North  Level FlightAware Approximate
Thu 01:05:00 PM 30.0239 -85.0555 353° North  Level FlightAware Approximate
Thu 01:06:00 PM 30.0623 -85.0607 353° North  Level FlightAware Approximate
Thu 01:07:00 PM 30.1008 -85.0659 353° North  Level FlightAware Approximate
Thu 01:08:00 PM 30.1393 -85.0711 353° North  Level FlightAware Approximate
Thu 01:09:00 PM 30.1778 -85.0764 353° North  Level FlightAware Approximate
Thu 01:10:00 PM 30.2163 -85.0816 353° North  Level FlightAware Approximate
Thu 01:11:00 PM 30.2547 -85.0868 353° North  Level FlightAware Approximate
Thu 01:12:00 PM 30.2932 -85.0921 353° North  Level FlightAware Approximate
Thu 01:13:00 PM 30.3317 -85.0973 353° North  Level FlightAware Approximate
Thu 01:14:00 PM 30.3702 -85.1026 353° North  Level FlightAware Approximate
Thu 01:15:00 PM 30.4087 -85.1078 353° North  Level FlightAware Approximate
Thu 01:16:00 PM 30.4471 -85.1131 353° North  Level FlightAware Approximate
Thu 01:17:00 PM 30.4856 -85.1183 353° North  Level FlightAware Approximate
Thu 01:18:00 PM 30.5241 -85.1236 353° North  Level FlightAware Approximate
Thu 01:18:26 PM 30.4847 -85.1367 353° North 143 165 6,000  Level Jacksonville Center
Thu 01:19:00 PM 30.5626 -85.1289 353° North  Level FlightAware Approximate
Thu 01:19:45 PM 30.5389 -85.1428 354° North 143 165 6,000  Level Jacksonville Center
Thu 01:20:00 PM 30.6011 -85.1341 353° North  Level FlightAware Approximate
Thu 01:20:39 PM 30.5744 -85.1461 355° North 144 166 6,000  Level Jacksonville Center
Thu 01:21:00 PM 30.6395 -85.1394 353° North  Level FlightAware Approximate
Thu 01:21:40 PM 30.6161 -85.1519 353° North 144 166 6,000  Level Jacksonville Center
Thu 01:22:00 PM 30.6780 -85.1447 353° North  Level FlightAware Approximate
Thu 01:22:47 PM 30.6578 -85.1578 353° North 144 166 6,000  Level Jacksonville Center
Thu 01:23:00 PM 30.7165 -85.1500 353° North  Level FlightAware Approximate
Thu 01:23:47 PM 30.6994 -85.1636 353° North 143 165 6,000  Level Jacksonville Center
Thu 01:24:54 PM 30.7453 -85.1694 354° North 145 167 6,000  Level Jacksonville Center
Thu 01:25:55 PM 30.7847 -85.1753 353° North 144 166 6,000  Level Jacksonville Center
Thu 01:26:55 PM 30.8264 -85.1786 356° North 145 167 6,000  Level Jacksonville Center
Thu 01:27:50 PM 30.8597 -85.1844 351° North 143 165 6,000  Level Jacksonville Center
Thu 01:28:50 PM 30.9014 -85.1903 353° North 144 166 6,000  Level Jacksonville Center
Thu 01:29:45 PM 30.9367 -85.1958 352° North 143 165 6,000  Level Jacksonville Center
Thu 01:30:52 PM 30.9825 -85.1994 356° North 145 167 6,000  Level Jacksonville Center
Thu 01:31:52 PM 31.0200 -85.2053 352° North 147 169 6,000  Level Jacksonville Center
Thu 01:32:53 PM 31.0617 -85.2111 353° North 143 165 6,000  Level Jacksonville Center
Thu 01:33:53 PM 31.1056 -85.2169 354° North 146 168 6,000  Level Jacksonville Center
Thu 01:35:00 PM 31.1472 -85.2228 353° North 145 167 6,000  Level Jacksonville Center
Thu 01:36:01 PM 31.1889 -85.2311 350° North 145 167 6,000  Level Jacksonville Center
Thu 01:37:01 PM 31.2303 -85.2372 353° North 146 168 6,000  Level Jacksonville Center
Thu 01:38:02 PM 31.2678 -85.2428 353° North 146 168 6,000  Level Jacksonville Center
Thu 01:39:03 PM 31.3094 -85.2489 353° North 143 165 6,000  Level Jacksonville Center
Thu 01:39:51 PM 31.3428 -85.2544 352° North 143 165 6,000  Level Jacksonville Center
Thu 01:40:52 PM 31.3825 -85.2581 356° North 144 166 6,000  Level Jacksonville Center
Thu 01:41:53 PM 31.4219 -85.2639 353° North 143 165 6,000  Level Jacksonville Center
Thu 01:42:54 PM 31.4636 -85.2697 353° North 145 167 6,000  Level Jacksonville Center
Thu 01:43:54 PM 31.5011 -85.2756 352° North 142 163 6,000  Level Jacksonville Center
Thu 01:45:07 PM 31.5469 -85.2792 356° North 138 159 6,000  Level Jacksonville Center
Thu 01:46:08 PM 31.5886 -85.2850 353° North 137 158 6,000  Level Jacksonville Center
Thu 01:47:08 PM 31.6281 -85.2911 352° North 139 160 6,000  Level Jacksonville Center
Thu 01:48:09 PM 31.6656 -85.2969 352° North 141 162 6,000  Level Jacksonville Center
Thu 01:50:08 PM 31.7500 -85.3000 358° North 138 159 6,000  Level Atlanta TRACON
Thu 01:51:08 PM 31.7833 -85.3167 337° Northwest 140 161 6,000  Level Atlanta TRACON
Thu 01:52:08 PM 31.8167 -85.3167 360° North 147 169 6,000  Level Atlanta TRACON
Thu 01:53:08 PM 31.8667 -85.3167 360° North 143 165 6,000  Level Atlanta TRACON
Thu 01:54:08 PM 31.9000 -85.3333 337° Northwest 143 165 6,000 -100 Level Atlanta TRACON
Thu 01:55:08 PM 31.9500 -85.3333 360° North 149 171 5,800 -300 Descending Atlanta TRACON
Thu 01:56:08 PM 31.9833 -85.3333 360° North 159 183 5,400 -450 Descending Atlanta TRACON
Thu 01:57:08 PM 32.0333 -85.3500 344° North 160 184 4,900 -450 Descending Atlanta TRACON
Thu 01:58:08 PM 32.0667 -85.3500 360° North 162 186 4,500 -450 Descending Atlanta TRACON
Thu 01:59:08 PM 32.1167 -85.3667 344° North 160 184 4,000 -500 Descending Atlanta TRACON
Thu 02:00:08 PM 32.1667 -85.3667 360° North 162 186 3,500 -474 Descending Atlanta TRACON
Thu 02:01:02 PM 32.2000 -85.3667 360° North 159 183 3,100 -211 Descending Atlanta TRACON
Thu 02:02:02 PM 32.2500 -85.3833 344° North 148 170 3,100  Level Atlanta TRACON
Thu 02:03:02 PM 32.2833 -85.3833 360° North 147 169 3,100 -50 Level Atlanta TRACON
Thu 02:04:02 PM 32.3333 -85.4000 344° North 143 165 3,000 -100 Descending Atlanta TRACON

Login

Don't have an account? Register now (free) for customized features, flight alerts, and more!